Time;durP1;ratioP1;P1;durP2;ratioP2;P2;SDS_P1;SDS_P2;PMS_P1;PMS_P2;Temp;Humidity;BMP_temperature;BMP_pressure;BME280_temperature;BME280_humidity;BME280_pressure;Samples;Min_cycle;Max_cycle;Signal;HPM_P1;HPM_P2
2022/01/05 00:01:53;;;;;;;1.20;1.20;;;;;;;4.46;100.00;95212.59;5115835;28;20431;-67
2022/01/05 00:04:19;;;;;;;1.10;1.10;;;;;;;4.65;100.00;95204.69;5115608;28;20508;-68
2022/01/05 00:06:44;;;;;;;1.10;1.10;;;;;;;4.54;100.00;95199.31;5115871;28;20399;-67
2022/01/05 00:09:10;;;;;;;0.90;0.90;;;;;;;4.60;100.00;95197.59;5114994;28;20388;-67
2022/01/05 00:11:35;;;;;;;1.00;1.00;;;;;;;4.60;100.00;95195.00;5115407;28;20399;-67
2022/01/05 00:14:01;;;;;;;1.03;1.03;;;;;;;4.50;100.00;95205.97;5115667;28;20718;-67
2022/01/05 00:16:26;;;;;;;1.30;1.10;;;;;;;4.51;100.00;95197.16;5115775;28;20387;-68
2022/01/05 00:18:52;;;;;;;0.90;0.90;;;;;;;4.64;100.00;95198.72;5115390;28;20479;-67
2022/01/05 00:21:17;;;;;;;0.90;0.90;;;;;;;4.67;100.00;95193.09;5097210;28;20388;-67
2022/01/05 00:23:43;;;;;;;1.65;1.00;;;;;;;4.61;100.00;95196.59;5115649;28;20380;-67
2022/01/05 00:26:09;;;;;;;1.10;1.10;;;;;;;4.68;100.00;95193.88;5115734;28;20385;-67
2022/01/05 00:28:34;;;;;;;1.00;1.00;;;;;;;4.66;100.00;95191.50;5115594;28;20393;-67
2022/01/05 00:30:59;;;;;;;1.00;1.00;;;;;;;4.69;100.00;95191.03;5115499;28;20477;-67
2022/01/05 00:33:25;;;;;;;1.00;1.00;;;;;;;4.64;100.00;95195.34;5114914;28;20761;-67
2022/01/05 00:35:50;;;;;;;1.00;1.00;;;;;;;4.69;100.00;95188.44;5115637;28;20868;-67
2022/01/05 00:38:16;;;;;;;1.00;1.00;;;;;;;4.78;100.00;95175.91;5115230;28;20512;-68
2022/01/05 00:40:41;;;;;;;1.00;1.00;;;;;;;4.68;100.00;95165.34;5115015;28;20388;-67
2022/01/05 00:43:06;;;;;;;0.90;0.90;;;;;;;4.61;100.00;95170.66;5115435;28;20902;-67
2022/01/05 00:45:32;;;;;;;1.00;1.00;;;;;;;4.54;100.00;95164.78;5115148;28;20483;-68
2022/01/05 00:47:57;;;;;;;1.00;1.00;;;;;;;4.78;100.00;95161.13;5114618;28;20873;-68
2022/01/05 00:50:22;;;;;;;0.80;0.80;;;;;;;4.83;100.00;95150.06;5114947;28;20505;-67
2022/01/05 00:52:48;;;;;;;1.00;1.00;;;;;;;4.72;100.00;95149.06;5114656;28;20399;-67
2022/01/05 00:55:13;;;;;;;1.13;1.03;;;;;;;4.69;100.00;95152.13;5114397;28;20395;-67
2022/01/05 00:57:39;;;;;;;1.07;1.07;;;;;;;4.79;100.00;95159.34;5114873;28;20452;-67
2022/01/05 01:00:05;;;;;;;1.20;0.93;;;;;;;4.71;100.00;95160.47;5114591;28;20425;-67
2022/01/05 01:02:31;;;;;;;0.90;0.90;;;;;;;4.79;100.00;95141.94;5114468;28;20392;-68
2022/01/05 01:04:56;;;;;;;0.90;0.90;;;;;;;4.43;100.00;95124.88;5113984;28;20392;-68
2022/01/05 01:07:21;;;;;;;0.90;0.90;;;;;;;4.55;100.00;95130.84;5114219;28;20444;-67
2022/01/05 01:09:47;;;;;;;1.02;1.02;;;;;;;4.67;100.00;95143.00;5115025;28;20388;-68
2022/01/05 01:12:12;;;;;;;0.90;0.90;;;;;;;4.63;100.00;95153.03;5115018;28;20876;-67
2022/01/05 01:14:38;;;;;;;0.90;0.90;;;;;;;4.57;100.00;95153.94;5114838;28;20432;-67
2022/01/05 01:17:04;;;;;;;0.88;0.88;;;;;;;4.47;100.00;95164.91;5114456;28;20951;-68
2022/01/05 01:19:29;;;;;;;0.90;0.90;;;;;;;4.63;100.00;95155.63;5114495;28;20393;-68
2022/01/05 01:21:55;;;;;;;0.80;0.80;;;;;;;4.69;100.00;95151.31;5115051;28;20434;-67
2022/01/05 01:24:21;;;;;;;0.80;0.80;;;;;;;4.77;100.00;95158.75;5114609;28;20396;-67
2022/01/05 01:26:46;;;;;;;0.90;0.90;;;;;;;4.77;100.00;95166.53;5114330;28;20748;-67
2022/01/05 01:29:12;;;;;;;0.90;0.90;;;;;;;4.79;100.00;95167.88;5113784;28;20426;-67
2022/01/05 01:31:37;;;;;;;0.73;0.73;;;;;;;4.71;100.00;95163.06;5114746;28;20416;-67
2022/01/05 01:34:03;;;;;;;0.73;0.73;;;;;;;4.77;100.00;95188.09;5114402;28;20388;-68
2022/01/05 01:36:28;;;;;;;0.80;0.80;;;;;;;4.69;100.00;95192.84;5114420;28;20449;-67
2022/01/05 01:38:53;;;;;;;0.80;0.80;;;;;;;4.70;100.00;95195.22;5113930;28;20441;-68
2022/01/05 01:41:19;;;;;;;0.80;0.80;;;;;;;4.88;100.00;95196.88;5113164;28;20471;-67
2022/01/05 01:43:44;;;;;;;1.00;0.80;;;;;;;4.93;100.00;95197.75;5114298;28;20388;-67
2022/01/05 01:46:10;;;;;;;0.80;0.80;;;;;;;4.96;100.00;95193.91;5113944;28;20752;-68
2022/01/05 01:48:36;;;;;;;0.80;0.80;;;;;;;4.96;100.00;95184.31;5113512;28;20750;-68
2022/01/05 01:51:01;;;;;;;0.70;0.70;;;;;;;4.95;100.00;95179.38;5114088;28;20447;-67
2022/01/05 01:53:26;;;;;;;0.80;0.80;;;;;;;4.87;100.00;95182.31;5113613;28;20750;-67
2022/01/05 01:55:54;;;;;;;0.80;0.80;;;;;;;4.85;100.00;95169.56;5114114;28;20503;-67
2022/01/05 01:58:22;;;;;;;0.90;0.90;;;;;;;4.86;100.00;95175.53;5095633;28;20438;-67
2022/01/05 02:00:47;;;;;;;0.70;0.70;;;;;;;5.02;100.00;95180.00;5095175;28;20427;-70
2022/01/05 02:03:14;;;;;;;0.73;0.73;;;;;;;5.01;100.00;95175.84;5113733;28;20497;-68
2022/01/05 02:05:40;;;;;;;0.77;0.77;;;;;;;4.98;100.00;95184.09;5111952;28;20392;-67
2022/01/05 02:08:05;;;;;;;0.90;0.90;;;;;;;4.95;100.00;95185.34;5113867;28;20445;-67
2022/01/05 02:10:31;;;;;;;0.90;0.90;;;;;;;4.91;100.00;95194.59;5095083;28;20903;-67
2022/01/05 02:12:56;;;;;;;0.70;0.70;;;;;;;4.92;100.00;95195.38;5113417;28;20468;-68
2022/01/05 02:15:22;;;;;;;0.80;0.80;;;;;;;5.05;100.00;95200.31;5113577;28;20867;-67
2022/01/05 02:18:10;;;;;;;0.73;0.73;;;;;;;5.02;100.00;95208.56;5113014;28;20529;-67
2022/01/05 02:20:36;;;;;;;1.05;0.90;;;;;;;4.88;100.00;95192.47;5113340;28;20388;-67
2022/01/05 02:23:01;;;;;;;1.10;1.10;;;;;;;4.89;100.00;95196.66;5113321;28;20411;-67
2022/01/05 02:25:27;;;;;;;0.85;0.85;;;;;;;5.07;100.00;95198.28;5112579;28;20879;-67
2022/01/05 02:27:55;;;;;;;0.90;0.90;;;;;;;4.93;100.00;95192.56;5113220;28;20471;-69
2022/01/05 02:30:29;;;;;;;0.80;0.80;;;;;;;5.09;100.00;95198.84;5112983;28;20396;-67
2022/01/05 02:32:54;;;;;;;0.90;0.90;;;;;;;5.15;100.00;95195.31;5113332;28;20476;-67
2022/01/05 02:35:20;;;;;;;0.80;0.80;;;;;;;5.00;100.00;95208.81;5113104;28;20487;-67
2022/01/05 02:37:49;;;;;;;0.80;0.80;;;;;;;5.37;100.00;95211.03;5094654;28;20523;-67
2022/01/05 02:40:17;;;;;;;0.80;0.80;;;;;;;5.20;100.00;95198.00;5112852;28;20857;-68
2022/01/05 02:42:43;;;;;;;0.80;0.80;;;;;;;5.24;100.00;95212.09;5094558;28;20475;-68
2022/01/05 02:45:10;;;;;;;0.80;0.80;;;;;;;5.11;100.00;95212.38;5113116;28;20396;-67
2022/01/05 02:47:36;;;;;;;0.80;0.80;;;;;;;5.08;100.00;95212.84;5112802;28;20399;-67
2022/01/05 02:50:04;;;;;;;0.73;0.73;;;;;;;5.14;100.00;95211.91;5112744;28;20444;-67
2022/01/05 02:52:29;;;;;;;1.00;0.80;;;;;;;5.02;100.00;95218.94;5112903;28;20400;-67
2022/01/05 02:54:54;;;;;;;0.90;0.90;;;;;;;4.99;100.00;95216.81;5112307;28;20381;-67
2022/01/05 02:57:20;;;;;;;0.80;0.80;;;;;;;5.03;100.00;95217.94;5112647;28;20752;-68
2022/01/05 02:59:45;;;;;;;0.80;0.80;;;;;;;5.17;100.00;95218.47;5112419;28;20529;-67
2022/01/05 03:02:11;;;;;;;0.80;0.80;;;;;;;5.02;100.00;95219.75;5112513;28;20714;-67
2022/01/05 03:04:36;;;;;;;0.90;0.90;;;;;;;5.06;100.00;95212.28;5111798;28;20383;-67
2022/01/05 03:07:02;;;;;;;0.90;0.90;;;;;;;4.94;100.00;95220.13;5112897;28;20404;-67
2022/01/05 03:09:27;;;;;;;0.70;0.70;;;;;;;5.08;100.00;95218.03;5112607;28;20483;-67
2022/01/05 03:11:53;;;;;;;0.80;0.80;;;;;;;4.81;100.00;95215.16;5112039;28;20384;-67
2022/01/05 03:14:19;;;;;;;0.80;0.80;;;;;;;4.81;100.00;95216.97;5112699;28;20391;-67
2022/01/05 03:16:45;;;;;;;1.00;1.00;;;;;;;4.75;100.00;95221.25;5111908;28;20404;-68
2022/01/05 03:19:10;;;;;;;0.70;0.70;;;;;;;4.81;100.00;95216.97;5112116;28;20430;-67
2022/01/05 03:21:35;;;;;;;0.80;0.80;;;;;;;4.66;100.00;95220.06;5112655;28;20729;-67
2022/01/05 03:24:01;;;;;;;0.90;0.90;;;;;;;4.59;100.00;95227.16;5112597;28;20411;-67
2022/01/05 03:26:26;;;;;;;0.90;0.90;;;;;;;4.66;100.00;95214.88;5112514;28;20845;-67
2022/01/05 03:28:51;;;;;;;0.70;0.70;;;;;;;4.72;100.00;95223.53;5112037;28;20384;-67
2022/01/05 03:31:17;;;;;;;0.80;0.80;;;;;;;4.76;100.00;95215.06;5111902;28;20393;-68
2022/01/05 03:33:42;;;;;;;1.00;0.90;;;;;;;4.86;100.00;95210.06;5112294;28;20760;-67
2022/01/05 03:36:08;;;;;;;0.90;0.90;;;;;;;4.70;100.00;95215.97;5112529;28;20388;-67
2022/01/05 03:38:33;;;;;;;0.70;0.70;;;;;;;4.62;100.00;95205.16;5111848;28;20481;-69
2022/01/05 03:41:00;;;;;;;0.80;0.80;;;;;;;4.48;100.00;95209.78;5096700;28;20280;-67
2022/01/05 03:43:26;;;;;;;0.93;0.80;;;;;;;4.53;100.00;95202.13;5113254;28;20195;-67
2022/01/05 03:45:51;;;;;;;0.70;0.70;;;;;;;4.63;100.00;95210.09;5112168;28;20400;-68
2022/01/05 03:48:20;;;;;;;0.60;0.60;;;;;;;4.43;100.00;95210.47;5112134;28;20391;-67
2022/01/05 03:50:47;;;;;;;0.70;0.70;;;;;;;4.38;100.00;95205.19;5111913;28;20394;-67
2022/01/05 03:53:13;;;;;;;0.80;0.80;;;;;;;4.66;100.00;95214.88;5112311;28;20775;-67
2022/01/05 03:55:40;;;;;;;0.80;0.80;;;;;;;4.69;100.00;95214.38;5112306;28;20380;-67
2022/01/05 03:58:06;;;;;;;0.80;0.80;;;;;;;4.69;100.00;95223.97;5110963;28;20416;-68
2022/01/05 04:00:34;;;;;;;0.80;0.80;;;;;;;4.77;100.00;95221.03;5111056;28;22280;-66
2022/01/05 04:03:00;;;;;;;0.75;0.75;;;;;;;4.58;100.00;95226.38;5111664;28;20384;-66
2022/01/05 04:05:26;;;;;;;0.80;0.80;;;;;;;4.70;100.00;95230.75;5111281;28;20399;-66
2022/01/05 04:07:51;;;;;;;0.90;0.90;;;;;;;4.71;100.00;95232.34;5111740;28;20397;-66
2022/01/05 04:10:17;;;;;;;0.80;0.80;;;;;;;4.74;100.00;95245.63;5111656;28;20441;-66
2022/01/05 04:12:43;;;;;;;0.70;0.70;;;;;;;4.64;100.00;95244.63;5111806;28;20451;-66
2022/01/05 04:15:09;;;;;;;0.80;0.80;;;;;;;4.79;100.00;95252.75;5093575;28;20480;-71
2022/01/05 04:17:34;;;;;;;0.90;0.90;;;;;;;4.81;100.00;95255.91;5111656;28;20412;-66
2022/01/05 04:20:00;;;;;;;0.90;0.90;;;;;;;4.76;100.00;95250.59;5111618;28;20774;-66
2022/01/05 04:22:25;;;;;;;0.70;0.70;;;;;;;4.59;100.00;95258.28;5111456;28;20433;-66
2022/01/05 04:24:51;;;;;;;0.60;0.60;;;;;;;4.66;100.00;95260.78;5111669;28;20483;-66
2022/01/05 04:27:16;;;;;;;0.70;0.70;;;;;;;4.70;100.00;95256.69;5111305;28;20385;-66
2022/01/05 04:29:42;;;;;;;0.80;0.80;;;;;;;4.68;100.00;95250.97;5113833;28;20479;-66
2022/01/05 04:32:08;;;;;;;0.60;0.60;;;;;;;4.84;100.00;95263.25;5115084;28;20396;-68
2022/01/05 04:34:33;;;;;;;0.85;0.85;;;;;;;4.75;100.00;95262.00;5103002;28;20395;-66
2022/01/05 04:36:59;;;;;;;0.70;0.70;;;;;;;4.70;100.00;95277.47;5115405;28;20408;-66
2022/01/05 04:39:24;;;;;;;0.80;0.80;;;;;;;4.73;100.00;95284.81;5114865;28;20404;-66
2022/01/05 04:41:49;;;;;;;0.80;0.80;;;;;;;4.65;100.00;95287.72;5115238;28;20531;-66
2022/01/05 04:44:15;;;;;;;0.70;0.70;;;;;;;4.79;100.00;95284.66;5114252;28;20389;-66
2022/01/05 04:46:40;;;;;;;0.80;0.80;;;;;;;4.78;100.00;95290.91;5096769;28;20396;-66
2022/01/05 04:49:05;;;;;;;0.80;0.80;;;;;;;4.79;100.00;95296.88;5115190;28;20844;-66
2022/01/05 04:51:31;;;;;;;0.90;0.90;;;;;;;4.67;100.00;95296.09;5114461;28;20384;-66
2022/01/05 04:53:56;;;;;;;0.80;0.80;;;;;;;4.63;100.00;95292.34;5115346;28;20384;-66
2022/01/05 04:56:22;;;;;;;0.87;0.87;;;;;;;4.67;100.00;95303.88;5114723;28;20395;-66
2022/01/05 04:58:47;;;;;;;0.90;0.90;;;;;;;4.66;100.00;95303.09;5114677;28;20396;-66
2022/01/05 05:01:14;;;;;;;0.90;0.90;;;;;;;4.56;100.00;95308.84;5114329;28;20573;-66
2022/01/05 05:03:39;;;;;;;0.80;0.80;;;;;;;4.61;100.00;95308.16;5114430;28;20400;-66
2022/01/05 05:06:05;;;;;;;0.87;0.87;;;;;;;4.58;100.00;95311.97;5114685;28;20396;-66
2022/01/05 05:08:30;;;;;;;0.83;0.83;;;;;;;4.46;100.00;95316.38;5096242;28;20391;-66
2022/01/05 05:10:56;;;;;;;0.90;0.90;;;;;;;4.37;100.00;95312.53;5114537;28;20904;-65
2022/01/05 05:13:21;;;;;;;0.70;0.70;;;;;;;4.45;100.00;95317.41;5113948;28;20385;-66
2022/01/05 05:15:46;;;;;;;0.77;0.77;;;;;;;4.52;100.00;95328.44;5114653;28;20479;-66
2022/01/05 05:18:12;;;;;;;0.73;0.73;;;;;;;4.39;100.00;95336.44;5114528;28;20797;-66
2022/01/05 05:20:37;;;;;;;0.97;0.97;;;;;;;4.48;100.00;95337.69;5114615;28;20412;-66
2022/01/05 05:23:04;;;;;;;0.90;0.90;;;;;;;4.47;100.00;95350.88;5114246;28;20442;-66
2022/01/05 05:25:29;;;;;;;0.73;0.73;;;;;;;4.44;100.00;95352.13;5114146;28;20380;-66
2022/01/05 05:27:55;;;;;;;0.80;0.80;;;;;;;4.42;100.00;95343.78;5113645;28;20903;-66
2022/01/05 05:30:20;;;;;;;1.00;1.00;;;;;;;4.31;100.00;95359.31;5113768;28;20380;-66
2022/01/05 05:32:46;;;;;;;2.90;2.70;;;;;;;3.54;100.00;95405.78;5095404;28;20481;-65
2022/01/05 05:35:11;;;;;;;0.97;0.97;;;;;;;2.70;100.00;95423.69;5113747;28;20876;-67
2022/01/05 05:37:37;;;;;;;1.10;1.10;;;;;;;2.24;100.00;95432.53;5113789;28;20746;-68
2022/01/05 05:40:03;;;;;;;;;;;;;;;1.79;100.00;95447.28;5115678;28;20483;-68
2022/01/05 05:42:28;;;;;;;;;;;;;;;1.61;100.00;95450.53;5115208;28;20380;-66
2022/01/05 05:44:53;;;;;;;;;;;;;;;1.31;100.00;95464.91;5115045;28;20002;-67
2022/01/05 05:47:18;;;;;;;;;;;;;;;1.03;100.00;95462.53;5115574;28;19915;-66
2022/01/05 05:49:45;;;;;;;;;;;;;;;1.04;100.00;95481.41;5115294;28;20428;-66
2022/01/05 05:52:11;;;;;;;1.30;1.30;;;;;;;0.88;100.00;95495.50;5114608;28;20185;-65
2022/01/05 05:54:36;;;;;;;1.63;1.53;;;;;;;0.94;100.00;95491.31;5114366;28;20729;-65
2022/01/05 05:57:02;;;;;;;1.10;1.10;;;;;;;0.99;100.00;95483.78;5114647;28;20204;-66
2022/01/05 05:59:27;;;;;;;1.65;1.55;;;;;;;0.87;100.00;95491.31;5113410;28;20388;-66
2022/01/05 06:01:52;;;;;;;1.60;1.50;;;;;;;0.90;100.00;95498.66;5113225;28;20380;-66
2022/01/05 06:04:19;;;;;;;1.40;1.40;;;;;;;0.81;100.00;95505.00;5114160;28;20188;-68
2022/01/05 06:06:45;;;;;;;2.07;1.97;;;;;;;0.89;100.00;95507.41;5096213;28;20195;-67
2022/01/05 06:09:10;;;;;;;;;;;;;;;1.01;100.00;95499.84;5114842;28;20388;-67
2022/01/05 06:11:36;;;;;;;;;;;;;;;1.09;100.00;95517.72;5114752;28;19911;-66
2022/01/05 06:14:01;;;;;;;;;;;;;;;1.11;100.00;95521.69;5114895;28;19916;-67
2022/01/05 06:16:26;;;;;;;;;;;;;;;1.23;100.00;95532.19;5114115;28;19994;-67
2022/01/05 06:18:51;;;;;;;;;;;;;;;1.23;100.00;95532.19;5114405;28;19922;-67
2022/01/05 06:21:16;;;;;;;;;;;;;;;1.01;100.00;95539.31;5114329;28;19998;-66
2022/01/05 06:23:42;;;;;;;;;;;;;;;1.16;100.00;95539.94;5114827;28;19957;-65
2022/01/05 06:26:07;;;;;;;;;;;;;;;1.12;100.00;95541.31;5096214;28;19916;-66
2022/01/05 06:28:32;;;;;;;;;;;;;;;1.20;100.00;95559.19;5114440;28;19916;-67
2022/01/05 06:30:57;;;;;;;;;;;;;;;1.19;100.00;95559.38;5114240;28;20011;-67
2022/01/05 06:33:23;;;;;;;;;;;;;;;1.37;100.00;95558.78;5114118;28;20386;-67
2022/01/05 06:35:48;;;;;;;;;;;;;;;1.39;100.00;95572.31;5114277;28;19957;-67
2022/01/05 06:38:13;;;;;;;;;;;;;;;1.44;100.00;95578.47;5113965;28;19920;-67
2022/01/05 06:40:38;;;;;;;;;;;;;;;1.39;100.00;95577.47;5113953;28;19973;-67
2022/01/05 06:43:04;;;;;;;;;;;;;;;1.25;100.00;95587.78;5114396;28;19916;-67
2022/01/05 06:45:29;;;;;;;;;;;;;;;1.27;100.00;95600.50;5113818;28;20332;-67
2022/01/05 06:47:55;;;;;;;;;;;;;;;1.37;100.00;95592.34;5114591;28;19916;-67
2022/01/05 06:50:20;;;;;;;;;;;;;;;1.46;100.00;95599.69;5113903;28;19966;-66
2022/01/05 06:52:45;;;;;;;;;;;;;;;1.30;100.00;95601.88;5113890;28;20306;-67
2022/01/05 06:55:11;;;;;;;;;;;;;;;1.20;100.00;95610.00;5113762;28;20334;-66
2022/01/05 06:57:40;;;;;;;;;;;;;;;1.10;100.00;95615.56;5114005;28;20305;-67
2022/01/05 07:00:06;;;;;;;;;;;;;;;1.05;100.00;95614.56;5114042;28;20364;-67
2022/01/05 07:02:31;;;;;;;;;;;;;;;1.09;100.00;95620.91;5113136;28;19916;-67
2022/01/05 07:04:57;;;;;;;;;;;;;;;1.09;100.00;95621.72;5112864;28;20296;-68
2022/01/05 07:07:22;;;;;;;;;;;;;;;1.13;100.00;95629.84;5113575;28;19915;-67
2022/01/05 07:09:48;;;;;;;;;;;;;;;1.17;100.00;95629.25;5114215;28;19919;-67
2022/01/05 07:12:13;;;;;;;;;;;;;;;1.23;100.00;95627.66;5114053;28;19916;-67
2022/01/05 07:14:39;;;;;;;;;;;;;;;1.38;100.00;95635.25;5114159;28;19915;-66
2022/01/05 07:17:04;;;;;;;;;;;;;;;1.51;100.00;95638.59;5114238;28;19951;-66
2022/01/05 07:19:29;;;;;;;;;;;;;;;1.56;100.00;95649.13;5094823;28;19916;-68
2022/01/05 07:21:54;;;;;;;;;;;;;;;1.52;100.00;95650.53;5112907;28;19922;-67
2022/01/05 07:24:20;;;;;;;;;;;;;;;1.55;100.00;95654.50;5113773;28;19966;-68
2022/01/05 07:26:46;;;;;;;;;;;;;;;1.49;100.00;95665.63;5113631;28;19915;-68
2022/01/05 07:29:15;;;;;;;;;;;;;;;1.40;100.00;95669.38;5113662;28;19927;-68
2022/01/05 07:31:41;;;;;;;;;;;;;;;1.38;100.00;95676.53;5113370;28;19916;-68
2022/01/05 07:34:06;;;;;;;;;;;;;;;1.42;100.00;95673.38;5113256;28;19926;-68
2022/01/05 07:36:32;;;;;;;;;;;;;;;1.39;100.00;95681.50;5113122;28;19916;-67
2022/01/05 07:38:57;;;;;;;;;;;;;;;1.22;100.00;95688.03;5113839;28;20465;-67
2022/01/05 07:41:22;;;;;;;;;;;;;;;1.84;100.00;95689.50;5113792;28;19922;-65
2022/01/05 07:43:47;;;;;;;;;;;;;;;1.59;100.00;95699.59;5112556;28;19916;-67
2022/01/05 07:46:13;;;;;;;;;;;;;;;1.42;100.00;95682.88;5114140;28;19918;-66
2022/01/05 07:48:38;;;;;;;;;;;;;;;1.42;100.00;95698.38;5113570;28;20006;-67
2022/01/05 07:51:04;;;;;;;;;;;;;;;1.36;100.00;95714.66;5113688;28;19911;-65
2022/01/05 07:53:29;;;;;;;;;;;;;;;1.23;100.00;95703.28;5112615;28;20003;-66
2022/01/05 07:55:54;;;;;;;;;;;;;;;1.04;100.00;95709.22;5112798;28;19916;-66
2022/01/05 07:58:23;;;;;;;;;;;;;;;1.00;100.00;95720.13;5113072;28;19920;-66
2022/01/05 08:00:49;;;;;;;;;;;;;;;0.99;100.00;95724.47;5113248;28;20367;-66
2022/01/05 08:03:14;;;;;;;;;;;;;;;1.09;100.00;95722.31;5095917;28;20035;-67
2022/01/05 08:05:39;;;;;;;;;;;;;;;1.18;100.00;95730.69;5111753;27;20004;-66
2022/01/05 08:08:04;;;;;;;;;;;;;;;1.15;100.00;95731.88;5116821;28;19927;-67
2022/01/05 08:10:30;;;;;;;;;;;;;;;1.09;100.00;95745.53;5116630;28;19919;-66
2022/01/05 08:12:55;;;;;;;;;;;;;;;1.14;100.00;95758.66;5116425;28;19915;-67
2022/01/05 08:15:20;;;;;;;;;;;;;;;1.18;100.00;95759.06;5115415;27;19965;-69
2022/01/05 08:17:46;;;;;;;;;;;;;;;1.23;100.00;95748.94;5115996;28;19920;-67
2022/01/05 08:20:11;;;;;;;;;;;;;;;1.23;100.00;95759.28;5117031;28;19980;-66
2022/01/05 08:22:40;;;;;;;;;;;;;;;1.21;100.00;95769.00;5116984;28;19915;-66
2022/01/05 08:25:05;;;;;;;;;;;;;;;1.21;100.00;95774.16;5116911;28;20349;-66
2022/01/05 08:27:30;;;;;;;;;;;;;;;1.20;100.00;95790.63;5117083;28;19955;-66
2022/01/05 08:29:56;;;;;;;3.23;2.50;;;;;;;1.06;100.00;95789.00;5116293;28;20190;-67
2022/01/05 08:32:21;;;;;;;5.33;2.87;;;;;;;1.17;100.00;95793.63;5115104;28;20392;-67
2022/01/05 08:34:47;;;;;;;5.23;2.60;;;;;;;1.21;100.00;95805.13;5115139;28;20534;-66
2022/01/05 08:37:12;;;;;;;3.93;2.70;;;;;;;1.24;100.00;95807.31;5115301;28;20553;-66
2022/01/05 08:39:37;;;;;;;3.30;2.60;;;;;;;1.24;98.52;95817.66;5096432;28;20824;-66
2022/01/05 08:42:03;;;;;;;3.20;2.30;;;;;;;1.16;97.00;95826.38;5115240;28;20986;-66
2022/01/05 08:44:28;;;;;;;3.27;2.03;;;;;;;0.97;94.77;95813.34;5096735;28;20393;-66
2022/01/05 08:46:54;;;;;;;4.67;2.20;;;;;;;1.01;96.96;95837.78;5115279;28;20396;-66
2022/01/05 08:49:19;;;;;;;4.75;2.45;;;;;;;1.18;96.49;95846.78;5114716;28;20395;-67
2022/01/05 08:51:45;;;;;;;3.63;2.27;;;;;;;1.15;96.03;95842.81;5114149;28;20437;-66
2022/01/05 08:54:10;;;;;;;4.10;2.20;;;;;;;1.15;95.03;95848.00;5114788;28;20809;-66
2022/01/05 08:56:37;;;;;;;3.65;2.22;;;;;;;1.18;94.35;95850.16;5114626;28;20422;-66
2022/01/05 08:59:03;;;;;;;3.30;2.30;;;;;;;1.30;95.55;95855.59;5114361;28;20427;-66
2022/01/05 09:01:28;;;;;;;3.30;2.30;;;;;;;1.08;93.08;95854.09;5114715;28;20713;-66
2022/01/05 09:03:54;;;;;;;4.57;2.22;;;;;;;1.11;94.15;95862.28;5114343;28;20833;-66
2022/01/05 09:06:19;;;;;;;4.23;2.17;;;;;;;0.96;93.60;95866.72;5113450;28;20396;-66
2022/01/05 09:08:45;;;;;;;4.17;2.17;;;;;;;1.06;92.29;95876.72;5095776;28;20538;-66
2022/01/05 09:11:11;;;;;;;5.53;2.20;;;;;;;1.21;92.11;95880.78;5114037;28;20396;-66
2022/01/05 09:13:37;;;;;;;3.93;2.17;;;;;;;1.62;92.04;95883.31;5113650;28;20384;-67
2022/01/05 09:16:03;;;;;;;4.50;1.90;;;;;;;1.53;88.38;95884.50;5113379;28;20387;-66
2022/01/05 09:18:29;;;;;;;4.13;2.17;;;;;;;2.19;90.51;95889.84;5095370;28;20412;-66
2022/01/05 09:20:54;;;;;;;3.67;2.05;;;;;;;2.35;84.82;95879.13;5113713;28;20445;-66
2022/01/05 09:23:19;;;;;;;3.27;1.87;;;;;;;2.68;86.86;95889.50;5113091;28;20404;-67
2022/01/05 09:25:45;;;;;;;3.17;1.87;;;;;;;2.93;86.10;95898.25;5113581;28;20408;-66
2022/01/05 09:28:10;;;;;;;3.47;1.70;;;;;;;2.62;85.29;95897.28;5113977;28;20483;-66
2022/01/05 09:30:36;;;;;;;2.83;1.80;;;;;;;2.26;86.02;95907.97;5113538;28;20391;-68
2022/01/05 09:33:01;;;;;;;4.63;1.87;;;;;;;2.43;85.91;95909.19;5114350;28;20389;-66
2022/01/05 09:35:27;;;;;;;4.63;1.70;;;;;;;2.51;83.04;95907.19;5113520;28;20786;-70
2022/01/05 09:43:12;;;;;;;3.38;1.73;;;;;;;2.84;81.01;95919.38;5113291;28;20417;-66
2022/01/05 09:45:50;;;;;;;7.35;2.00;;;;;;;2.99;80.43;95927.72;5112330;28;20392;-67
2022/01/05 09:48:18;;;;;;;2.45;1.65;;;;;;;2.73;79.50;95928.50;5113529;28;20385;-66
2022/01/05 09:51:03;;;;;;;6.53;1.90;;;;;;;2.64;81.67;95941.84;5113720;28;20384;-66
2022/01/05 09:53:30;;;;;;;2.90;1.77;;;;;;;2.53;79.91;95950.19;5113652;28;20453;-66
2022/01/05 09:55:56;;;;;;;4.30;1.80;;;;;;;2.32;81.58;95951.13;5095078;28;20396;-66
2022/01/05 09:58:23;;;;;;;2.47;1.60;;;;;;;2.49;79.55;95952.38;5095114;28;20408;-71
2022/01/05 10:00:50;;;;;;;3.17;1.77;;;;;;;2.37;82.12;95956.50;5113339;28;20420;-69
2022/01/05 10:03:16;;;;;;;2.72;1.73;;;;;;;2.66;80.53;95956.19;5113327;28;20854;-66
2022/01/05 10:05:42;;;;;;;6.00;1.97;;;;;;;2.77;79.71;95947.81;5110544;28;20400;-66
2022/01/05 10:08:08;;;;;;;3.67;1.85;;;;;;;2.57;82.01;95947.00;5113303;28;20437;-66
2022/01/05 10:10:33;;;;;;;4.90;1.50;;;;;;;2.33;80.92;95958.72;5109583;28;20496;-66
2022/01/05 10:12:59;;;;;;;4.33;2.07;;;;;;;2.44;82.09;95960.72;5094509;28;20385;-66
2022/01/05 10:15:26;;;;;;;2.92;1.60;;;;;;;2.39;80.43;95955.34;5113163;28;20391;-66
2022/01/05 10:18:09;;;;;;;4.28;1.60;;;;;;;2.45;79.62;95956.34;5112070;28;20439;-66
2022/01/05 10:20:35;;;;;;;5.95;1.88;;;;;;;1.81;77.41;95964.47;5112793;28;20384;-66
2022/01/05 10:23:00;;;;;;;4.90;1.90;;;;;;;1.91;78.64;95979.63;5112515;28;20389;-66
2022/01/05 10:25:25;;;;;;;5.80;1.90;;;;;;;1.93;77.80;95977.66;5112540;28;20404;-66
2022/01/05 10:27:59;;;;;;;3.80;1.70;;;;;;;1.94;78.55;95977.47;5111790;28;20472;-66
2022/01/05 10:30:39;;;;;;;7.40;2.00;;;;;;;2.25;78.84;95976.97;5111702;28;20876;-66
2022/01/05 10:33:05;;;;;;;3.80;1.65;;;;;;;2.23;79.71;95978.94;5112698;28;20471;-66
2022/01/05 10:35:31;;;;;;;3.75;1.90;;;;;;;1.76;75.97;95976.38;5112375;28;20422;-69
2022/01/05 10:37:58;;;;;;;5.23;1.80;;;;;;;1.71;73.33;95981.31;5111988;28;20423;-66
2022/01/05 10:40:24;;;;;;;4.18;1.48;;;;;;;1.80;74.46;95982.75;5111818;28;20423;-66
2022/01/05 10:42:53;;;;;;;5.32;1.83;;;;;;;1.81;73.30;95992.09;5112335;28;20814;-66
2022/01/05 10:45:38;;;;;;;3.45;1.80;;;;;;;1.71;72.66;95982.13;5111961;28;20770;-66
2022/01/05 10:48:07;;;;;;;6.03;1.73;;;;;;;1.88;71.65;95991.16;5111820;28;20855;-65
2022/01/05 10:50:33;;;;;;;4.85;1.60;;;;;;;1.98;74.35;95993.38;5111566;28;20454;-65
2022/01/05 10:52:59;;;;;;;3.63;1.60;;;;;;;2.17;72.64;95984.09;5111686;28;20384;-65
2022/01/05 10:55:27;;;;;;;3.33;2.03;;;;;;;2.11;72.41;95982.28;5111953;28;20441;-66
2022/01/05 10:58:03;;;;;;;5.65;1.90;;;;;;;2.08;73.07;95989.44;5093691;28;20734;-66
2022/01/05 11:00:33;;;;;;;3.65;1.92;;;;;;;2.11;73.91;95980.50;5112014;28;20396;-65
2022/01/05 11:02:59;;;;;;;4.72;1.90;;;;;;;2.19;72.47;95982.09;5109288;28;20392;-63
2022/01/05 11:05:24;;;;;;;4.55;1.85;;;;;;;2.32;71.81;95989.91;5109850;28;20789;-66
2022/01/05 11:07:50;;;;;;;5.80;1.73;;;;;;;2.42;70.42;95985.16;5111453;28;20475;-64
2022/01/05 11:10:18;;;;;;;5.28;2.13;;;;;;;2.47;70.11;95991.34;5111426;28;20827;-65
2022/01/05 11:12:52;;;;;;;4.53;1.70;;;;;;;2.65;69.84;95993.38;5111535;28;20388;-64
2022/01/05 11:15:39;;;;;;;3.45;1.40;;;;;;;2.63;68.35;95995.34;5124597;27;20450;-64
2022/01/05 11:18:12;;;;;;;7.03;1.88;;;;;;;2.85;69.09;95996.78;5111319;28;20753;-65
2022/01/05 11:21:01;;;;;;;5.88;1.90;;;;;;;3.30;69.63;95991.81;5111113;28;20864;-66
2022/01/05 11:23:28;;;;;;;4.45;1.63;;;;;;;2.85;66.41;95996.78;5111396;28;20428;-65
2022/01/05 11:25:55;;;;;;;3.40;1.80;;;;;;;2.85;67.41;96012.31;5111574;28;20893;-65
2022/01/05 11:28:23;;;;;;;3.47;1.65;;;;;;;2.72;67.02;96008.91;5111581;28;20392;-64
2022/01/05 11:30:51;;;;;;;5.65;1.70;;;;;;;2.62;67.84;96011.84;5109902;28;20508;-65
2022/01/05 11:33:18;;;;;;;4.88;1.70;;;;;;;2.64;66.95;96007.31;5110837;28;20756;-65
2022/01/05 11:35:44;;;;;;;3.33;1.57;;;;;;;2.72;67.85;96011.50;5111080;28;20857;-65
2022/01/05 11:38:11;;;;;;;3.73;2.00;;;;;;;2.89;67.31;96015.31;5110701;28;20423;-65
2022/01/05 11:40:46;;;;;;;3.47;1.80;;;;;;;2.58;66.31;96004.69;5110907;28;20741;-65
2022/01/05 11:43:25;;;;;;;3.88;1.70;;;;;;;2.80;67.40;96016.47;5109963;28;20484;-66
2022/01/05 11:45:51;;;;;;;2.50;1.40;;;;;;;2.49;65.90;96015.22;5109691;28;20395;-69
2022/01/05 11:48:35;;;;;;;5.30;1.95;;;;;;;2.96;66.54;96007.53;5109694;28;20384;-65
2022/01/05 11:51:03;;;;;;;3.88;1.70;;;;;;;2.69;67.36;96011.88;5101879;28;20459;-65
2022/01/05 11:53:34;;;;;;;3.63;1.58;;;;;;;2.96;66.73;96010.91;5093231;28;20885;-69